sensor_id;sensor_type;location;lat;lon;timestamp;temperature;humidity
72712;SHT30;60828;40.292;17.998;2022-09-09T00:00:13;26.90;79.45
72712;SHT30;60828;40.292;17.998;2022-09-09T00:05:31;26.84;79.66
72712;SHT30;60828;40.292;17.998;2022-09-09T00:07:59;26.87;79.66
72712;SHT30;60828;40.292;17.998;2022-09-09T00:10:39;26.79;79.98
72712;SHT30;60828;40.292;17.998;2022-09-09T00:13:33;26.78;79.95
72712;SHT30;60828;40.292;17.998;2022-09-09T00:16:13;26.75;80.14
72712;SHT30;60828;40.292;17.998;2022-09-09T00:21:50;26.71;80.25
72712;SHT30;60828;40.292;17.998;2022-09-09T00:24:32;26.66;80.21
72712;SHT30;60828;40.292;17.998;2022-09-09T00:27:13;26.63;80.18
72712;SHT30;60828;40.292;17.998;2022-09-09T00:29:54;26.68;80.17
72712;SHT30;60828;40.292;17.998;2022-09-09T00:32:21;26.71;80.05
72712;SHT30;60828;40.292;17.998;2022-09-09T00:34:48;26.75;79.91
72712;SHT30;60828;40.292;17.998;2022-09-09T00:37:15;26.69;79.99
72712;SHT30;60828;40.292;17.998;2022-09-09T00:39:47;26.69;80.05
72712;SHT30;60828;40.292;17.998;2022-09-09T00:42:20;26.68;80.19
72712;SHT30;60828;40.292;17.998;2022-09-09T00:45:34;26.78;79.83
72712;SHT30;60828;40.292;17.998;2022-09-09T00:48:10;26.79;79.75
72712;SHT30;60828;40.292;17.998;2022-09-09T00:50:55;26.76;79.95
72712;SHT30;60828;40.292;17.998;2022-09-09T00:53:30;26.79;79.78
72712;SHT30;60828;40.292;17.998;2022-09-09T00:56:14;26.76;79.78
72712;SHT30;60828;40.292;17.998;2022-09-09T01:01:43;26.73;80.02
72712;SHT30;60828;40.292;17.998;2022-09-09T01:04:13;26.73;79.97
72712;SHT30;60828;40.292;17.998;2022-09-09T01:06:41;26.76;80.06
72712;SHT30;60828;40.292;17.998;2022-09-09T01:14:52;26.69;80.16
72712;SHT30;60828;40.292;17.998;2022-09-09T01:17:53;26.72;80.00
72712;SHT30;60828;40.292;17.998;2022-09-09T01:20:27;26.69;80.14
72712;SHT30;60828;40.292;17.998;2022-09-09T01:28:37;26.62;80.39
72712;SHT30;60828;40.292;17.998;2022-09-09T01:31:09;26.63;80.32
72712;SHT30;60828;40.292;17.998;2022-09-09T01:33:36;26.71;80.13
72712;SHT30;60828;40.292;17.998;2022-09-09T01:36:17;26.71;80.04
72712;SHT30;60828;40.292;17.998;2022-09-09T01:38:45;26.65;80.32
72712;SHT30;60828;40.292;17.998;2022-09-09T01:41:11;26.59;80.50
72712;SHT30;60828;40.292;17.998;2022-09-09T01:43:37;26.63;80.43
72712;SHT30;60828;40.292;17.998;2022-09-09T01:46:03;26.62;80.35
72712;SHT30;60828;40.292;17.998;2022-09-09T01:48:29;26.59;80.37
72712;SHT30;60828;40.292;17.998;2022-09-09T01:50:55;26.59;80.53
72712;SHT30;60828;40.292;17.998;2022-09-09T01:53:21;26.56;80.51
72712;SHT30;60828;40.292;17.998;2022-09-09T01:59:05;26.60;80.52
72712;SHT30;60828;40.292;17.998;2022-09-09T02:04:41;26.52;80.75
72712;SHT30;60828;40.292;17.998;2022-09-09T02:07:50;26.42;81.19
72712;SHT30;60828;40.292;17.998;2022-09-09T02:10:37;26.51;81.05
72712;SHT30;60828;40.292;17.998;2022-09-09T02:15:53;26.49;81.10
72712;SHT30;60828;40.292;17.998;2022-09-09T02:18:26;26.53;81.12
72712;SHT30;60828;40.292;17.998;2022-09-09T02:20:53;26.59;81.02
72712;SHT30;60828;40.292;17.998;2022-09-09T02:23:20;26.49;81.24
72712;SHT30;60828;40.292;17.998;2022-09-09T02:25:46;26.49;81.23
72712;SHT30;60828;40.292;17.998;2022-09-09T02:28:14;26.49;81.48
72712;SHT30;60828;40.292;17.998;2022-09-09T02:30:45;26.45;81.68
72712;SHT30;60828;40.292;17.998;2022-09-09T02:33:13;26.48;81.48
72712;SHT30;60828;40.292;17.998;2022-09-09T02:35:40;26.52;81.45
72712;SHT30;60828;40.292;17.998;2022-09-09T02:38:10;26.51;81.31
72712;SHT30;60828;40.292;17.998;2022-09-09T02:40:36;26.49;81.52
72712;SHT30;60828;40.292;17.998;2022-09-09T02:43:02;26.55;81.44
72712;SHT30;60828;40.292;17.998;2022-09-09T02:45:36;26.53;81.42
72712;SHT30;60828;40.292;17.998;2022-09-09T02:48:30;26.51;81.54
72712;SHT30;60828;40.292;17.998;2022-09-09T02:51:15;26.46;81.58
72712;SHT30;60828;40.292;17.998;2022-09-09T02:53:57;26.45;81.66
72712;SHT30;60828;40.292;17.998;2022-09-09T02:56:30;26.48;81.50
72712;SHT30;60828;40.292;17.998;2022-09-09T02:58:58;26.48;81.52
72712;SHT30;60828;40.292;17.998;2022-09-09T03:01:26;26.53;81.36
72712;SHT30;60828;40.292;17.998;2022-09-09T03:03:53;26.53;81.36
72712;SHT30;60828;40.292;17.998;2022-09-09T03:06:26;26.51;81.39
72712;SHT30;60828;40.292;17.998;2022-09-09T03:08:53;26.46;81.46
72712;SHT30;60828;40.292;17.998;2022-09-09T03:11:19;26.44;81.79
72712;SHT30;60828;40.292;17.998;2022-09-09T03:13:44;26.46;81.68
72712;SHT30;60828;40.292;17.998;2022-09-09T03:16:10;26.41;81.77
72712;SHT30;60828;40.292;17.998;2022-09-09T03:18:35;26.45;81.65
72712;SHT30;60828;40.292;17.998;2022-09-09T03:21:01;26.45;81.63
72712;SHT30;60828;40.292;17.998;2022-09-09T03:23:26;26.45;81.66
72712;SHT30;60828;40.292;17.998;2022-09-09T03:25:52;26.45;81.70
72712;SHT30;60828;40.292;17.998;2022-09-09T03:28:21;26.45;81.65
72712;SHT30;60828;40.292;17.998;2022-09-09T03:30:48;26.41;81.78
72712;SHT30;60828;40.292;17.998;2022-09-09T03:33:14;26.41;81.83
72712;SHT30;60828;40.292;17.998;2022-09-09T03:35:45;26.49;81.62
72712;SHT30;60828;40.292;17.998;2022-09-09T03:38:12;26.46;81.68
72712;SHT30;60828;40.292;17.998;2022-09-09T03:40:38;26.52;81.65
72712;SHT30;60828;40.292;17.998;2022-09-09T03:43:05;26.45;81.82
72712;SHT30;60828;40.292;17.998;2022-09-09T03:45:31;26.42;81.90
72712;SHT30;60828;40.292;17.998;2022-09-09T03:47:56;26.46;81.77
72712;SHT30;60828;40.292;17.998;2022-09-09T03:50:22;26.46;81.75
72712;SHT30;60828;40.292;17.998;2022-09-09T03:52:48;26.45;81.87
72712;SHT30;60828;40.292;17.998;2022-09-09T03:55:23;26.39;81.91
72712;SHT30;60828;40.292;17.998;2022-09-09T03:57:49;26.39;82.03
72712;SHT30;60828;40.292;17.998;2022-09-09T04:00:16;26.39;82.04
72712;SHT30;60828;40.292;17.998;2022-09-09T04:02:42;26.42;81.98
72712;SHT30;60828;40.292;17.998;2022-09-09T04:05:08;26.41;82.18
72712;SHT30;60828;40.292;17.998;2022-09-09T04:07:34;26.39;82.08
72712;SHT30;60828;40.292;17.998;2022-09-09T04:09:59;26.34;82.31
72712;SHT30;60828;40.292;17.998;2022-09-09T04:12:25;26.42;82.22
72712;SHT30;60828;40.292;17.998;2022-09-09T04:14:50;26.39;82.25
72712;SHT30;60828;40.292;17.998;2022-09-09T04:17:16;26.44;82.18
72712;SHT30;60828;40.292;17.998;2022-09-09T04:19:42;26.42;82.32
72712;SHT30;60828;40.292;17.998;2022-09-09T04:22:07;26.37;82.54
72712;SHT30;60828;40.292;17.998;2022-09-09T04:24:33;26.38;82.44
72712;SHT30;60828;40.292;17.998;2022-09-09T04:27:00;26.35;82.44
72712;SHT30;60828;40.292;17.998;2022-09-09T04:29:26;26.42;82.33
72712;SHT30;60828;40.292;17.998;2022-09-09T04:31:51;26.45;82.19
72712;SHT30;60828;40.292;17.998;2022-09-09T04:34:17;26.42;82.40
72712;SHT30;60828;40.292;17.998;2022-09-09T04:36:43;26.41;82.31
72712;SHT30;60828;40.292;17.998;2022-09-09T04:39:09;26.44;82.33
72712;SHT30;60828;40.292;17.998;2022-09-09T04:41:34;26.44;82.41
72712;SHT30;60828;40.292;17.998;2022-09-09T04:44:01;26.42;82.46
72712;SHT30;60828;40.292;17.998;2022-09-09T04:46:26;26.46;82.36
72712;SHT30;60828;40.292;17.998;2022-09-09T04:48:54;26.48;82.39
72712;SHT30;60828;40.292;17.998;2022-09-09T04:51:19;26.53;82.32
72712;SHT30;60828;40.292;17.998;2022-09-09T04:53:46;26.56;82.02
72712;SHT30;60828;40.292;17.998;2022-09-09T04:56:16;26.63;81.88
72712;SHT30;60828;40.292;17.998;2022-09-09T04:58:43;26.71;81.65
72712;SHT30;60828;40.292;17.998;2022-09-09T05:01:09;26.79;81.43
72712;SHT30;60828;40.292;17.998;2022-09-09T05:03:35;26.79;81.34
72712;SHT30;60828;40.292;17.998;2022-09-09T05:06:06;26.86;81.11
72712;SHT30;60828;40.292;17.998;2022-09-09T05:08:34;26.92;81.04
72712;SHT30;60828;40.292;17.998;2022-09-09T05:10:59;26.86;81.16
72712;SHT30;60828;40.292;17.998;2022-09-09T05:13:26;26.92;81.01
72712;SHT30;60828;40.292;17.998;2022-09-09T05:15:53;26.90;80.98
72712;SHT30;60828;40.292;17.998;2022-09-09T05:18:19;26.89;80.96
72712;SHT30;60828;40.292;17.998;2022-09-09T05:20:46;26.89;80.98
72712;SHT30;60828;40.292;17.998;2022-09-09T05:23:11;26.90;80.90
72712;SHT30;60828;40.292;17.998;2022-09-09T05:25:39;26.97;80.67
72712;SHT30;60828;40.292;17.998;2022-09-09T05:28:07;26.99;80.56
72712;SHT30;60828;40.292;17.998;2022-09-09T05:30:33;27.00;80.47
72712;SHT30;60828;40.292;17.998;2022-09-09T05:32:59;27.06;80.18
72712;SHT30;60828;40.292;17.998;2022-09-09T05:35:25;27.13;80.12
72712;SHT30;60828;40.292;17.998;2022-09-09T05:37:50;27.27;79.69
72712;SHT30;60828;40.292;17.998;2022-09-09T05:40:16;27.29;79.66
72712;SHT30;60828;40.292;17.998;2022-09-09T05:42:41;27.37;79.42
72712;SHT30;60828;40.292;17.998;2022-09-09T05:45:08;27.45;79.15
72712;SHT30;60828;40.292;17.998;2022-09-09T05:47:34;27.47;78.92
72712;SHT30;60828;40.292;17.998;2022-09-09T05:50:01;27.54;78.68
72712;SHT30;60828;40.292;17.998;2022-09-09T05:52:26;27.54;78.72
72712;SHT30;60828;40.292;17.998;2022-09-09T05:54:52;27.57;78.61
72712;SHT30;60828;40.292;17.998;2022-09-09T05:57:20;27.59;78.35
72712;SHT30;60828;40.292;17.998;2022-09-09T05:59:46;27.63;78.21
72712;SHT30;60828;40.292;17.998;2022-09-09T06:02:11;27.95;77.46
72712;SHT30;60828;40.292;17.998;2022-09-09T06:04:38;28.05;77.09
72712;SHT30;60828;40.292;17.998;2022-09-09T06:07:04;27.88;77.22
72712;SHT30;60828;40.292;17.998;2022-09-09T06:09:31;27.89;77.04
72712;SHT30;60828;40.292;17.998;2022-09-09T06:11:57;28.30;75.97
72712;SHT30;60828;40.292;17.998;2022-09-09T06:14:24;28.41;75.81
72712;SHT30;60828;40.292;17.998;2022-09-09T06:16:52;28.54;75.63
72712;SHT30;60828;40.292;17.998;2022-09-09T06:19:17;28.62;75.43
72712;SHT30;60828;40.292;17.998;2022-09-09T06:21:43;28.52;75.52
72712;SHT30;60828;40.292;17.998;2022-09-09T06:24:09;28.71;75.46
72712;SHT30;60828;40.292;17.998;2022-09-09T06:26:36;29.03;74.71
72712;SHT30;60828;40.292;17.998;2022-09-09T06:29:03;29.36;73.88
72712;SHT30;60828;40.292;17.998;2022-09-09T06:31:35;29.58;73.24
72712;SHT30;60828;40.292;17.998;2022-09-09T06:34:02;29.20;74.06
72712;SHT30;60828;40.292;17.998;2022-09-09T06:36:32;28.99;74.49
72712;SHT30;60828;40.292;17.998;2022-09-09T06:38:58;28.82;74.75
72712;SHT30;60828;40.292;17.998;2022-09-09T06:41:24;28.89;74.41
72712;SHT30;60828;40.292;17.998;2022-09-09T06:43:51;30.13;72.39
72712;SHT30;60828;40.292;17.998;2022-09-09T06:46:18;30.81;70.26
72712;SHT30;60828;40.292;17.998;2022-09-09T06:48:44;32.16;66.84
72712;SHT30;60828;40.292;17.998;2022-09-09T06:51:16;33.06;63.73
72712;SHT30;60828;40.292;17.998;2022-09-09T06:53:45;31.83;66.92
72712;SHT30;60828;40.292;17.998;2022-09-09T06:58:39;33.74;62.24
72712;SHT30;60828;40.292;17.998;2022-09-09T07:01:12;33.59;62.21
72712;SHT30;60828;40.292;17.998;2022-09-09T07:03:38;32.68;64.71
72712;SHT30;60828;40.292;17.998;2022-09-09T07:06:04;32.65;64.21
72712;SHT30;60828;40.292;17.998;2022-09-09T07:08:29;31.76;66.63
72712;SHT30;60828;40.292;17.998;2022-09-09T07:11:01;30.87;68.88
72712;SHT30;60828;40.292;17.998;2022-09-09T07:13:27;31.36;68.18
72712;SHT30;60828;40.292;17.998;2022-09-09T07:15:52;32.34;65.77
72712;SHT30;60828;40.292;17.998;2022-09-09T07:18:18;33.13;63.57
72712;SHT30;60828;40.292;17.998;2022-09-09T07:20:52;34.87;58.85
72712;SHT30;60828;40.292;17.998;2022-09-09T07:23:17;36.11;55.50
72712;SHT30;60828;40.292;17.998;2022-09-09T07:25:45;37.00;52.87
72712;SHT30;60828;40.292;17.998;2022-09-09T07:28:11;37.19;52.61
72712;SHT30;60828;40.292;17.998;2022-09-09T07:30:36;36.08;55.16
72712;SHT30;60828;40.292;17.998;2022-09-09T07:33:02;34.64;57.91
72712;SHT30;60828;40.292;17.998;2022-09-09T07:35:28;34.20;59.12
72712;SHT30;60828;40.292;17.998;2022-09-09T07:37:54;34.06;59.77
72712;SHT30;60828;40.292;17.998;2022-09-09T07:40:19;36.00;55.00
72712;SHT30;60828;40.292;17.998;2022-09-09T07:42:46;36.71;53.05
72712;SHT30;60828;40.292;17.998;2022-09-09T07:45:12;36.45;53.66
72712;SHT30;60828;40.292;17.998;2022-09-09T07:47:37;36.44;53.59
72712;SHT30;60828;40.292;17.998;2022-09-09T07:50:03;36.90;52.32
72712;SHT30;60828;40.292;17.998;2022-09-09T07:52:29;37.24;51.98
72712;SHT30;60828;40.292;17.998;2022-09-09T07:54:54;37.00;52.39
72712;SHT30;60828;40.292;17.998;2022-09-09T07:57:22;38.82;48.57
72712;SHT30;60828;40.292;17.998;2022-09-09T07:59:48;37.99;49.71
72712;SHT30;60828;40.292;17.998;2022-09-09T08:02:13;38.15;49.04
72712;SHT30;60828;40.292;17.998;2022-09-09T08:04:39;37.07;51.33
72712;SHT30;60828;40.292;17.998;2022-09-09T08:07:04;35.56;54.95
72712;SHT30;60828;40.292;17.998;2022-09-09T08:09:30;36.65;52.04
72712;SHT30;60828;40.292;17.998;2022-09-09T08:11:57;36.93;52.05
72712;SHT30;60828;40.292;17.998;2022-09-09T08:14:23;36.52;52.54
72712;SHT30;60828;40.292;17.998;2022-09-09T08:16:50;37.09;51.33
72712;SHT30;60828;40.292;17.998;2022-09-09T08:19:16;36.89;51.51
72712;SHT30;60828;40.292;17.998;2022-09-09T08:21:43;37.16;51.89
72712;SHT30;60828;40.292;17.998;2022-09-09T08:24:10;37.48;49.85
72712;SHT30;60828;40.292;17.998;2022-09-09T08:26:46;36.53;50.88
72712;SHT30;60828;40.292;17.998;2022-09-09T08:29:15;35.87;52.83
72712;SHT30;60828;40.292;17.998;2022-09-09T08:31:46;36.11;53.33
72712;SHT30;60828;40.292;17.998;2022-09-09T08:34:12;36.51;52.42
72712;SHT30;60828;40.292;17.998;2022-09-09T08:36:41;37.19;50.73
72712;SHT30;60828;40.292;17.998;2022-09-09T08:39:09;38.29;48.13
72712;SHT30;60828;40.292;17.998;2022-09-09T08:51:53;37.49;49.42
72712;SHT30;60828;40.292;17.998;2022-09-09T08:54:21;37.89;49.43
72712;SHT30;60828;40.292;17.998;2022-09-09T08:56:46;37.67;49.36
72712;SHT30;60828;40.292;17.998;2022-09-09T08:59:16;37.69;49.22
72712;SHT30;60828;40.292;17.998;2022-09-09T09:07:28;37.24;49.39
72712;SHT30;60828;40.292;17.998;2022-09-09T09:12:36;37.45;49.34
72712;SHT30;60828;40.292;17.998;2022-09-09T09:15:14;38.01;48.55
72712;SHT30;60828;40.292;17.998;2022-09-09T09:17:42;38.72;47.29
72712;SHT30;60828;40.292;17.998;2022-09-09T09:20:13;38.08;48.10
72712;SHT30;60828;40.292;17.998;2022-09-09T09:22:51;38.08;47.22
72712;SHT30;60828;40.292;17.998;2022-09-09T09:25:30;37.75;48.15
72712;SHT30;60828;40.292;17.998;2022-09-09T09:27:59;38.03;48.14
72712;SHT30;60828;40.292;17.998;2022-09-09T09:31:04;37.17;48.92
72712;SHT30;60828;40.292;17.998;2022-09-09T09:33:50;38.13;45.71
72712;SHT30;60828;40.292;17.998;2022-09-09T09:36:18;38.68;45.82
72712;SHT30;60828;40.292;17.998;2022-09-09T09:38:58;37.96;46.65
72712;SHT30;60828;40.292;17.998;2022-09-09T09:41:41;37.72;46.55
72712;SHT30;60828;40.292;17.998;2022-09-09T09:46:49;38.41;46.74
72712;SHT30;60828;40.292;17.998;2022-09-09T09:49:15;37.98;46.61
72712;SHT30;60828;40.292;17.998;2022-09-09T09:51:41;38.16;46.27
72712;SHT30;60828;40.292;17.998;2022-09-09T09:54:14;37.95;46.86
72712;SHT30;60828;40.292;17.998;2022-09-09T09:56:44;37.45;47.78
72712;SHT30;60828;40.292;17.998;2022-09-09T09:59:22;37.75;47.70
72712;SHT30;60828;40.292;17.998;2022-09-09T10:01:48;37.35;47.86
72712;SHT30;60828;40.292;17.998;2022-09-09T10:04:21;37.51;47.20
72712;SHT30;60828;40.292;17.998;2022-09-09T10:06:49;37.75;45.99
72712;SHT30;60828;40.292;17.998;2022-09-09T10:09:28;37.38;45.06
72712;SHT30;60828;40.292;17.998;2022-09-09T10:23:01;37.16;46.32
72712;SHT30;60828;40.292;17.998;2022-09-09T10:28:30;36.84;48.11
72712;SHT30;60828;40.292;17.998;2022-09-09T10:36:32;36.94;47.49
72712;SHT30;60828;40.292;17.998;2022-09-09T10:39:04;36.75;49.24
72712;SHT30;60828;40.292;17.998;2022-09-09T10:41:44;35.73;51.35
72712;SHT30;60828;40.292;17.998;2022-09-09T10:50:09;36.53;50.02
72712;SHT30;60828;40.292;17.998;2022-09-09T10:55:15;36.90;49.34
72712;SHT30;60828;40.292;17.998;2022-09-09T10:57:53;36.48;50.68
72712;SHT30;60828;40.292;17.998;2022-09-09T11:00:55;36.12;52.21
72712;SHT30;60828;40.292;17.998;2022-09-09T11:03:28;35.57;54.74
72712;SHT30;60828;40.292;17.998;2022-09-09T11:05:58;35.47;55.24
72712;SHT30;60828;40.292;17.998;2022-09-09T11:08:29;35.60;54.89
72712;SHT30;60828;40.292;17.998;2022-09-09T11:13:29;35.16;56.15
72712;SHT30;60828;40.292;17.998;2022-09-09T11:16:05;34.95;56.47
72712;SHT30;60828;40.292;17.998;2022-09-09T11:18:40;34.97;57.47
72712;SHT30;60828;40.292;17.998;2022-09-09T11:21:26;34.83;57.35
72712;SHT30;60828;40.292;17.998;2022-09-09T11:23:57;34.78;56.91
72712;SHT30;60828;40.292;17.998;2022-09-09T11:26:35;34.74;57.18
72712;SHT30;60828;40.292;17.998;2022-09-09T11:32:24;35.33;56.76
72712;SHT30;60828;40.292;17.998;2022-09-09T11:40:24;34.77;56.62
72712;SHT30;60828;40.292;17.998;2022-09-09T11:43:12;35.02;56.34
72712;SHT30;60828;40.292;17.998;2022-09-09T11:45:40;35.32;55.87
72712;SHT30;60828;40.292;17.998;2022-09-09T11:48:43;35.18;55.29
72712;SHT30;60828;40.292;17.998;2022-09-09T11:54:44;35.59;54.25
72712;SHT30;60828;40.292;17.998;2022-09-09T11:56:43;35.35;54.54
72712;SHT30;60828;40.292;17.998;2022-09-09T11:59:24;34.81;55.38
72712;SHT30;60828;40.292;17.998;2022-09-09T12:02:22;35.11;54.69
72712;SHT30;60828;40.292;17.998;2022-09-09T12:05:08;34.87;53.88
72712;SHT30;60828;40.292;17.998;2022-09-09T12:07:41;34.90;54.41
72712;SHT30;60828;40.292;17.998;2022-09-09T12:12:38;34.86;55.38
72712;SHT30;60828;40.292;17.998;2022-09-09T12:17:49;34.91;53.90
72712;SHT30;60828;40.292;17.998;2022-09-09T12:20:35;34.90;54.07
72712;SHT30;60828;40.292;17.998;2022-09-09T12:23:22;34.99;53.04
72712;SHT30;60828;40.292;17.998;2022-09-09T12:34:09;34.81;52.66
72712;SHT30;60828;40.292;17.998;2022-09-09T12:36:35;34.84;52.70
72712;SHT30;60828;40.292;17.998;2022-09-09T12:39:21;35.01;50.47
72712;SHT30;60828;40.292;17.998;2022-09-09T12:41:52;35.11;49.08
72712;SHT30;60828;40.292;17.998;2022-09-09T12:44:23;35.47;48.10
72712;SHT30;60828;40.292;17.998;2022-09-09T12:46:49;35.53;47.95
72712;SHT30;60828;40.292;17.998;2022-09-09T12:49:35;35.64;50.10
72712;SHT30;60828;40.292;17.998;2022-09-09T12:52:12;35.66;49.41
72712;SHT30;60828;40.292;17.998;2022-09-09T12:54:44;35.66;49.81
72712;SHT30;60828;40.292;17.998;2022-09-09T12:57:12;35.73;50.28
72712;SHT30;60828;40.292;17.998;2022-09-09T12:59:41;35.69;50.01
72712;SHT30;60828;40.292;17.998;2022-09-09T13:02:22;35.96;49.54
72712;SHT30;60828;40.292;17.998;2022-09-09T13:04:48;35.59;49.83
72712;SHT30;60828;40.292;17.998;2022-09-09T13:07:16;35.33;51.05
72712;SHT30;60828;40.292;17.998;2022-09-09T13:09:42;35.05;48.80
72712;SHT30;60828;40.292;17.998;2022-09-09T13:12:14;35.12;48.75
72712;SHT30;60828;40.292;17.998;2022-09-09T13:14:43;35.24;49.24
72712;SHT30;60828;40.292;17.998;2022-09-09T13:17:35;35.26;48.87
72712;SHT30;60828;40.292;17.998;2022-09-09T13:20:01;35.49;48.97
72712;SHT30;60828;40.292;17.998;2022-09-09T13:22:34;35.21;50.03
72712;SHT30;60828;40.292;17.998;2022-09-09T13:27:39;34.99;50.55
72712;SHT30;60828;40.292;17.998;2022-09-09T13:30:24;34.90;50.04
72712;SHT30;60828;40.292;17.998;2022-09-09T13:33:05;34.72;50.09
72712;SHT30;60828;40.292;17.998;2022-09-09T13:35:32;35.12;49.08
72712;SHT30;60828;40.292;17.998;2022-09-09T13:37:59;35.29;48.12
72712;SHT30;60828;40.292;17.998;2022-09-09T13:40:31;35.05;49.34
72712;SHT30;60828;40.292;17.998;2022-09-09T13:42:57;34.95;49.84
72712;SHT30;60828;40.292;17.998;2022-09-09T13:45:25;34.98;49.52
72712;SHT30;60828;40.292;17.998;2022-09-09T13:47:54;34.81;50.41
72712;SHT30;60828;40.292;17.998;2022-09-09T13:50:23;34.71;50.53
72712;SHT30;60828;40.292;17.998;2022-09-09T13:52:54;34.64;49.66
72712;SHT30;60828;40.292;17.998;2022-09-09T13:55:24;34.83;50.30
72712;SHT30;60828;40.292;17.998;2022-09-09T13:57:55;34.90;49.76
72712;SHT30;60828;40.292;17.998;2022-09-09T14:00:21;34.88;51.38
72712;SHT30;60828;40.292;17.998;2022-09-09T14:02:48;34.92;51.20
72712;SHT30;60828;40.292;17.998;2022-09-09T14:05:14;34.99;51.07
72712;SHT30;60828;40.292;17.998;2022-09-09T14:07:41;35.02;51.19
72712;SHT30;60828;40.292;17.998;2022-09-09T14:10:08;35.08;50.73
72712;SHT30;60828;40.292;17.998;2022-09-09T14:12:34;34.95;50.97
72712;SHT30;60828;40.292;17.998;2022-09-09T14:15:00;35.04;50.21
72712;SHT30;60828;40.292;17.998;2022-09-09T14:17:26;34.83;49.59
72712;SHT30;60828;40.292;17.998;2022-09-09T14:19:54;34.91;49.18
72712;SHT30;60828;40.292;17.998;2022-09-09T14:22:21;34.87;48.76
72712;SHT30;60828;40.292;17.998;2022-09-09T14:24:47;34.94;49.23
72712;SHT30;60828;40.292;17.998;2022-09-09T14:27:12;35.01;48.07
72712;SHT30;60828;40.292;17.998;2022-09-09T14:29:38;34.90;47.14
72712;SHT30;60828;40.292;17.998;2022-09-09T14:32:03;34.68;48.59
72712;SHT30;60828;40.292;17.998;2022-09-09T14:34:29;34.59;48.85
72712;SHT30;60828;40.292;17.998;2022-09-09T14:36:55;34.51;49.26
72712;SHT30;60828;40.292;17.998;2022-09-09T14:39:20;34.46;50.07
72712;SHT30;60828;40.292;17.998;2022-09-09T14:41:46;34.53;49.31
72712;SHT30;60828;40.292;17.998;2022-09-09T14:44:11;34.49;48.55
72712;SHT30;60828;40.292;17.998;2022-09-09T14:46:37;34.41;49.24
72712;SHT30;60828;40.292;17.998;2022-09-09T14:49:03;34.39;48.97
72712;SHT30;60828;40.292;17.998;2022-09-09T14:51:29;34.49;48.78
72712;SHT30;60828;40.292;17.998;2022-09-09T14:53:57;34.49;48.74
72712;SHT30;60828;40.292;17.998;2022-09-09T14:56:26;34.37;50.17
72712;SHT30;60828;40.292;17.998;2022-09-09T14:58:55;34.30;51.38
72712;SHT30;60828;40.292;17.998;2022-09-09T15:01:22;34.05;53.71
72712;SHT30;60828;40.292;17.998;2022-09-09T15:03:50;34.05;53.30
72712;SHT30;60828;40.292;17.998;2022-09-09T15:06:16;34.10;51.66
72712;SHT30;60828;40.292;17.998;2022-09-09T15:08:44;34.15;51.68
72712;SHT30;60828;40.292;17.998;2022-09-09T15:11:11;33.98;53.42
72712;SHT30;60828;40.292;17.998;2022-09-09T15:13:38;33.94;54.39
72712;SHT30;60828;40.292;17.998;2022-09-09T15:16:17;34.01;55.20
72712;SHT30;60828;40.292;17.998;2022-09-09T15:18:44;33.96;56.64
72712;SHT30;60828;40.292;17.998;2022-09-09T15:21:11;33.82;57.43
72712;SHT30;60828;40.292;17.998;2022-09-09T15:23:37;33.86;56.91
72712;SHT30;60828;40.292;17.998;2022-09-09T15:26:03;33.71;57.31
72712;SHT30;60828;40.292;17.998;2022-09-09T15:28:31;33.75;57.54
72712;SHT30;60828;40.292;17.998;2022-09-09T15:30:57;33.58;57.96
72712;SHT30;60828;40.292;17.998;2022-09-09T15:33:23;33.50;58.66
72712;SHT30;60828;40.292;17.998;2022-09-09T15:35:48;33.40;58.94
72712;SHT30;60828;40.292;17.998;2022-09-09T15:38:15;33.24;60.02
72712;SHT30;60828;40.292;17.998;2022-09-09T15:40:42;33.31;60.31
72712;SHT30;60828;40.292;17.998;2022-09-09T15:43:08;33.03;61.47
72712;SHT30;60828;40.292;17.998;2022-09-09T15:45:35;32.80;62.17
72712;SHT30;60828;40.292;17.998;2022-09-09T15:48:01;32.62;62.81
72712;SHT30;60828;40.292;17.998;2022-09-09T15:50:27;32.64;62.79
72712;SHT30;60828;40.292;17.998;2022-09-09T15:52:54;32.54;62.91
72712;SHT30;60828;40.292;17.998;2022-09-09T15:55:20;32.17;63.31
72712;SHT30;60828;40.292;17.998;2022-09-09T15:57:46;32.14;64.06
72712;SHT30;60828;40.292;17.998;2022-09-09T16:00:13;31.84;64.77
72712;SHT30;60828;40.292;17.998;2022-09-09T16:02:39;31.76;64.74
72712;SHT30;60828;40.292;17.998;2022-09-09T16:05:05;31.67;65.21
72712;SHT30;60828;40.292;17.998;2022-09-09T16:07:31;31.70;65.31
72712;SHT30;60828;40.292;17.998;2022-09-09T16:09:56;31.62;65.42
72712;SHT30;60828;40.292;17.998;2022-09-09T16:12:22;31.58;65.25
72712;SHT30;60828;40.292;17.998;2022-09-09T16:14:48;31.46;65.32
72712;SHT30;60828;40.292;17.998;2022-09-09T16:17:13;31.45;65.26
72712;SHT30;60828;40.292;17.998;2022-09-09T16:19:40;31.36;65.18
72712;SHT30;60828;40.292;17.998;2022-09-09T16:22:05;31.25;65.35
72712;SHT30;60828;40.292;17.998;2022-09-09T16:24:31;31.02;65.28
72712;SHT30;60828;40.292;17.998;2022-09-09T16:26:57;31.01;65.12
72712;SHT30;60828;40.292;17.998;2022-09-09T16:29:23;30.98;65.14
72712;SHT30;60828;40.292;17.998;2022-09-09T16:31:49;30.95;65.19
72712;SHT30;60828;40.292;17.998;2022-09-09T16:34:16;30.84;65.00
72712;SHT30;60828;40.292;17.998;2022-09-09T16:36:44;30.74;64.75
72712;SHT30;60828;40.292;17.998;2022-09-09T16:39:14;30.81;64.42
72712;SHT30;60828;40.292;17.998;2022-09-09T16:41:42;30.80;65.00
72712;SHT30;60828;40.292;17.998;2022-09-09T16:44:09;30.73;65.76
72712;SHT30;60828;40.292;17.998;2022-09-09T16:46:38;30.57;66.48
72712;SHT30;60828;40.292;17.998;2022-09-09T16:49:04;30.47;66.77
72712;SHT30;60828;40.292;17.998;2022-09-09T16:51:30;30.36;67.33
72712;SHT30;60828;40.292;17.998;2022-09-09T16:54:00;30.15;67.66
72712;SHT30;60828;40.292;17.998;2022-09-09T16:56:28;30.09;67.79
72712;SHT30;60828;40.292;17.998;2022-09-09T16:58:57;30.09;68.03
72712;SHT30;60828;40.292;17.998;2022-09-09T17:01:27;30.00;68.32
72712;SHT30;60828;40.292;17.998;2022-09-09T17:03:53;29.91;68.65
72712;SHT30;60828;40.292;17.998;2022-09-09T17:06:18;29.80;68.98
72712;SHT30;60828;40.292;17.998;2022-09-09T17:08:44;29.77;69.05
72712;SHT30;60828;40.292;17.998;2022-09-09T17:11:14;29.75;69.13
72712;SHT30;60828;40.292;17.998;2022-09-09T17:13:40;29.67;69.19
72712;SHT30;60828;40.292;17.998;2022-09-09T17:16:06;29.54;69.56
72712;SHT30;60828;40.292;17.998;2022-09-09T17:18:31;29.53;69.63
72712;SHT30;60828;40.292;17.998;2022-09-09T17:21:01;29.43;69.92